createdAt,value
2023-02-13T00:02:24.903Z,85.44
2023-02-13T00:04:57.663Z,85.54
2023-02-13T00:07:27.951Z,85.61
2023-02-13T00:09:58.186Z,85.45
2023-02-13T00:12:28.314Z,85.50
2023-02-13T00:14:59.453Z,85.74
2023-02-13T00:17:29.950Z,85.44
2023-02-13T00:20:02.574Z,85.41
2023-02-13T00:22:33.431Z,85.19
2023-02-13T00:25:03.737Z,85.05
2023-02-13T00:27:33.959Z,85.11
2023-02-13T00:30:05.758Z,85.21
2023-02-13T00:32:35.998Z,85.25
2023-02-13T00:35:09.384Z,84.94
2023-02-13T00:37:39.362Z,85.32
2023-02-13T00:40:11.505Z,85.42
2023-02-13T00:42:41.895Z,85.56
2023-02-13T00:45:13.053Z,85.25
2023-02-13T00:47:42.991Z,85.24
2023-02-13T00:50:15.995Z,85.25
2023-02-13T00:52:46.029Z,85.31
2023-02-13T00:55:16.284Z,85.22
2023-02-13T00:57:46.684Z,85.10
2023-02-13T01:00:18.302Z,85.47
2023-02-13T01:02:48.408Z,85.41
2023-02-13T01:05:21.164Z,85.32
2023-02-13T01:07:52.589Z,85.75
2023-02-13T01:10:23.219Z,85.70
2023-02-13T01:12:53.611Z,85.59
2023-02-13T01:15:24.426Z,85.59
2023-02-13T01:17:57.658Z,85.21
2023-02-13T01:20:33.226Z,85.45
2023-02-13T01:23:03.255Z,85.38
2023-02-13T01:25:33.247Z,85.65
2023-02-13T01:28:03.373Z,85.40
2023-02-13T01:30:33.546Z,85.34
2023-02-13T01:33:03.580Z,85.29
2023-02-13T01:35:36.305Z,85.19
2023-02-13T01:38:07.410Z,85.02
2023-02-13T01:40:37.456Z,85.03
2023-02-13T01:43:12.247Z,84.96
2023-02-13T01:45:42.508Z,84.71
2023-02-13T01:48:18.978Z,84.58
2023-02-13T01:50:56.943Z,84.71
2023-02-13T01:53:31.885Z,84.77
2023-02-13T01:56:06.015Z,84.85
2023-02-13T01:58:39.572Z,84.70
2023-02-13T02:01:11.497Z,84.81
2023-02-13T02:03:50.621Z,85.25
2023-02-13T02:06:29.563Z,85.05
2023-02-13T02:09:04.991Z,85.09
2023-02-13T02:11:42.594Z,85.04
2023-02-13T02:14:15.419Z,85.20
2023-02-13T02:16:46.042Z,85.03
2023-02-13T02:19:23.511Z,85.28
2023-02-13T02:22:22.096Z,85.18
2023-02-13T02:25:25.558Z,85.21
2023-02-13T02:28:32.061Z,85.23
2023-02-13T02:31:57.548Z,85.51
2023-02-13T02:34:39.113Z,85.70
2023-02-13T02:37:21.097Z,85.56
2023-02-13T02:40:04.396Z,85.58
2023-02-13T02:42:48.441Z,85.67
2023-02-13T02:45:27.706Z,85.79
2023-02-13T02:48:15.626Z,85.53
2023-02-13T02:50:55.670Z,85.34
2023-02-13T02:53:36.226Z,85.39
2023-02-13T02:56:14.618Z,85.42
2023-02-13T02:59:02.676Z,85.18
2023-02-13T03:01:49.795Z,85.31
2023-02-13T03:04:34.508Z,85.55
2023-02-13T03:07:11.624Z,85.36
2023-02-13T03:09:57.048Z,85.26
2023-02-13T03:12:45.954Z,85.22
2023-02-13T03:15:16.634Z,85.40
2023-02-13T03:17:59.180Z,85.25
2023-02-13T03:20:54.886Z,85.14
2023-02-13T03:23:37.739Z,85.22
2023-02-13T03:26:45.486Z,85.09
2023-02-13T03:29:37.117Z,84.98
2023-02-13T03:32:14.863Z,85.13
2023-02-13T03:35:07.509Z,85.33
2023-02-13T03:37:58.280Z,85.17
2023-02-13T03:40:59.462Z,85.20
2023-02-13T03:43:32.721Z,85.15
2023-02-13T03:46:03.484Z,85.32
2023-02-13T03:48:49.546Z,85.11
2023-02-13T03:51:25.332Z,85.28
2023-02-13T03:53:59.561Z,85.44
2023-02-13T03:56:47.497Z,85.48
2023-02-13T03:59:25.201Z,85.63
2023-02-13T04:02:02.828Z,85.31
2023-02-13T04:04:42.247Z,85.19
2023-02-13T04:07:29.613Z,85.28
2023-02-13T04:10:01.993Z,84.90
2023-02-13T04:12:42.243Z,85.01
2023-02-13T04:15:18.749Z,85.07
2023-02-13T04:17:52.959Z,84.92
2023-02-13T04:20:22.832Z,84.64
2023-02-13T04:22:52.704Z,84.64
2023-02-13T04:25:23.517Z,84.64
2023-02-13T04:27:55.992Z,84.75
2023-02-13T04:30:26.085Z,84.80
2023-02-13T04:32:56.198Z,84.88
2023-02-13T04:35:26.112Z,85.17
2023-02-13T04:37:56.130Z,85.12
2023-02-13T04:40:26.156Z,84.99
2023-02-13T04:42:59.111Z,85.11
2023-02-13T04:45:29.426Z,85.25
2023-02-13T04:48:02.849Z,85.05
2023-02-13T04:50:32.985Z,85.14
2023-02-13T04:53:02.966Z,85.11
2023-02-13T04:55:33.167Z,84.91
2023-02-13T04:58:05.699Z,84.84
2023-02-13T05:00:37.690Z,84.87
2023-02-13T05:03:09.002Z,85.03
2023-02-13T05:05:39.158Z,85.05
2023-02-13T05:08:10.932Z,84.86
2023-02-13T05:10:41.027Z,85.15
2023-02-13T05:13:14.128Z,85.10
2023-02-13T05:15:44.303Z,85.26
2023-02-13T05:18:15.592Z,84.99
2023-02-13T05:20:45.522Z,84.92
2023-02-13T05:23:26.321Z,84.92
2023-02-13T05:25:56.534Z,85.22
2023-02-13T05:28:44.319Z,85.09
2023-02-13T05:31:14.535Z,85.09
2023-02-13T05:33:44.725Z,85.04
2023-02-13T05:36:15.066Z,84.82
2023-02-13T05:38:44.926Z,85.04
2023-02-13T05:41:16.296Z,85.08
2023-02-13T05:43:48.853Z,84.94
2023-02-13T05:46:18.842Z,85.04
2023-02-13T05:48:48.881Z,85.07
2023-02-13T05:51:18.920Z,84.86
2023-02-13T05:53:48.884Z,84.84
2023-02-13T05:56:19.039Z,85.03
2023-02-13T05:58:54.392Z,85.16
2023-02-13T06:01:24.955Z,85.19
2023-02-13T06:03:56.729Z,84.86
2023-02-13T06:06:28.685Z,84.81
2023-02-13T06:08:58.697Z,84.67
2023-02-13T06:11:29.023Z,84.71
2023-02-13T06:14:01.614Z,84.87
2023-02-13T06:16:31.894Z,84.50
2023-02-13T06:19:01.844Z,84.62
2023-02-13T06:21:33.467Z,84.69
2023-02-13T06:24:03.597Z,84.85
2023-02-13T06:26:33.668Z,84.57
2023-02-13T06:29:06.898Z,84.51
2023-02-13T06:31:37.249Z,84.69
2023-02-13T06:34:07.687Z,84.60
2023-02-13T06:36:38.512Z,84.39
2023-02-13T06:39:08.573Z,84.45
2023-02-13T06:41:38.727Z,84.54
2023-02-13T06:44:11.958Z,84.22
2023-02-13T06:46:42.000Z,84.45
2023-02-13T06:49:12.682Z,84.52
2023-02-13T06:51:42.653Z,84.34
2023-02-13T06:54:12.681Z,84.36
2023-02-13T06:56:43.053Z,84.23
2023-02-13T06:59:15.658Z,84.19
2023-02-13T07:01:45.651Z,84.38
2023-02-13T07:04:15.671Z,84.18
2023-02-13T07:06:45.488Z,84.02
2023-02-13T07:09:16.763Z,84.01
2023-02-13T07:11:46.706Z,83.88
2023-02-13T07:14:19.391Z,83.91
2023-02-13T07:16:49.588Z,83.97
2023-02-13T07:19:19.597Z,84.13
2023-02-13T07:21:49.545Z,83.91
2023-02-13T07:24:19.473Z,84.19
2023-02-13T07:26:49.575Z,84.08
2023-02-13T07:29:22.208Z,83.99
2023-02-13T07:31:52.186Z,83.86
2023-02-13T07:34:22.247Z,84.14
2023-02-13T07:36:52.199Z,84.27
2023-02-13T07:39:22.134Z,84.17
2023-02-13T07:41:52.202Z,84.02
2023-02-13T07:44:24.905Z,84.17
2023-02-13T07:46:54.921Z,84.00
2023-02-13T07:49:24.820Z,83.79
2023-02-13T07:51:54.824Z,83.88
2023-02-13T07:54:24.994Z,83.87
2023-02-13T07:56:54.958Z,83.52
2023-02-13T07:59:27.771Z,83.58
2023-02-13T08:01:57.746Z,83.37
2023-02-13T08:04:27.801Z,83.35
2023-02-13T08:06:57.973Z,83.48
2023-02-13T08:09:40.987Z,83.63
2023-02-13T08:12:12.571Z,83.56
2023-02-13T08:14:45.088Z,83.54
2023-02-13T08:17:15.416Z,83.57
2023-02-13T08:19:45.282Z,83.50
2023-02-13T08:22:15.317Z,83.46
2023-02-13T08:24:45.812Z,83.28
2023-02-13T08:27:16.341Z,83.29
2023-02-13T08:29:49.254Z,83.27
2023-02-13T08:32:19.591Z,83.39
2023-02-13T08:34:49.629Z,83.57
2023-02-13T08:37:19.633Z,83.52
2023-02-13T08:39:49.678Z,83.29
2023-02-13T08:42:20.080Z,83.45
2023-02-13T08:44:52.744Z,83.18
2023-02-13T08:47:22.860Z,83.24
2023-02-13T08:49:53.023Z,83.02
2023-02-13T08:52:23.531Z,83.25
2023-02-13T08:54:53.442Z,83.06
2023-02-13T08:57:23.440Z,83.00
2023-02-13T08:59:56.062Z,82.88
2023-02-13T09:02:26.287Z,82.94
2023-02-13T09:04:56.427Z,82.73
2023-02-13T09:07:26.637Z,82.43
2023-02-13T09:09:56.664Z,82.86
2023-02-13T09:12:26.872Z,82.55
2023-02-13T09:14:59.320Z,82.43
2023-02-13T09:17:29.298Z,82.76
2023-02-13T09:19:59.192Z,82.55
2023-02-13T09:22:29.096Z,82.57
2023-02-13T09:25:01.084Z,82.55
2023-02-13T09:27:31.073Z,82.29
2023-02-13T09:30:04.512Z,81.97
2023-02-13T09:32:36.794Z,82.29
2023-02-13T09:35:06.664Z,82.08
2023-02-13T09:37:36.681Z,82.23
2023-02-13T09:40:07.120Z,82.53
2023-02-13T09:42:39.805Z,82.73
2023-02-13T09:45:16.965Z,82.19
2023-02-13T09:47:48.006Z,81.99
2023-02-13T09:50:24.698Z,82.15
2023-02-13T09:52:57.587Z,81.73
2023-02-13T09:55:37.398Z,81.30
2023-02-13T09:58:16.432Z,81.33
2023-02-13T10:00:54.441Z,81.49
2023-02-13T10:03:32.666Z,81.40
2023-02-13T10:06:11.593Z,81.37
2023-02-13T10:08:59.597Z,81.59
2023-02-13T10:11:50.018Z,81.71
2023-02-13T10:14:22.480Z,81.70
2023-02-13T10:17:01.681Z,81.76
2023-02-13T10:19:38.109Z,81.75
2023-02-13T10:22:14.875Z,81.94
2023-02-13T10:24:50.202Z,81.69
2023-02-13T10:27:25.473Z,81.96
2023-02-13T10:30:12.605Z,82.05
2023-02-13T10:33:11.322Z,82.03
2023-02-13T10:35:42.195Z,82.08
2023-02-13T10:38:18.775Z,82.04
2023-02-13T10:41:02.437Z,81.63
2023-02-13T10:43:38.231Z,81.06
2023-02-13T10:46:17.566Z,80.59
2023-02-13T10:49:21.048Z,80.46
2023-02-13T10:51:58.869Z,80.03
2023-02-13T10:54:48.003Z,80.26
2023-02-13T10:57:24.956Z,79.89
2023-02-13T11:00:08.130Z,80.14
2023-02-13T11:02:38.884Z,80.28
2023-02-13T11:05:18.235Z,80.57
2023-02-13T11:07:49.652Z,80.48
2023-02-13T11:10:22.577Z,80.51
2023-02-13T11:12:53.396Z,81.07
2023-02-13T11:15:26.473Z,81.23
2023-02-13T11:17:59.629Z,81.04
2023-02-13T11:20:38.911Z,80.99
2023-02-13T11:23:28.445Z,81.17
2023-02-13T11:26:04.378Z,81.10
2023-02-13T11:28:38.843Z,80.71
2023-02-13T11:31:15.671Z,80.67
2023-02-13T11:33:46.217Z,80.29
2023-02-13T11:36:27.935Z,80.24
2023-02-13T11:39:03.551Z,80.54
2023-02-13T11:41:39.173Z,80.77
2023-02-13T11:44:24.789Z,80.39
2023-02-13T11:46:56.052Z,80.31
2023-02-13T11:49:28.465Z,80.24
2023-02-13T11:52:03.888Z,80.67
2023-02-13T11:54:37.194Z,80.90
2023-02-13T11:57:24.972Z,81.04
2023-02-13T11:59:56.305Z,80.71
2023-02-13T12:02:27.921Z,80.95
2023-02-13T12:05:17.044Z,81.11
2023-02-13T12:07:50.510Z,80.65
2023-02-13T12:10:26.335Z,80.57
2023-02-13T12:12:59.029Z,80.65
2023-02-13T12:15:31.028Z,80.35
2023-02-13T12:18:13.601Z,80.18
2023-02-13T12:20:55.695Z,80.22
2023-02-13T12:23:40.556Z,80.13
2023-02-13T12:26:15.619Z,77.86
2023-02-13T12:29:02.030Z,79.61
2023-02-13T12:31:51.653Z,80.32
2023-02-13T12:35:00.200Z,79.90
2023-02-13T12:37:48.235Z,79.65
2023-02-13T12:40:36.996Z,79.31
2023-02-13T12:43:28.688Z,79.12
2023-02-13T12:46:06.781Z,79.26
2023-02-13T12:48:43.130Z,79.13
2023-02-13T12:51:38.299Z,79.70
2023-02-13T12:54:27.352Z,79.93
2023-02-13T12:57:12.425Z,80.31
2023-02-13T13:00:01.420Z,80.52
2023-02-13T13:02:52.940Z,80.40
2023-02-13T13:05:34.604Z,80.38
2023-02-13T13:08:21.648Z,80.45
2023-02-13T13:11:08.837Z,80.42
2023-02-13T13:13:55.074Z,80.22
2023-02-13T13:16:32.920Z,80.11
2023-02-13T13:19:14.545Z,80.31
2023-02-13T13:21:50.225Z,79.99
2023-02-13T13:24:36.540Z,79.83
2023-02-13T13:27:07.633Z,79.90
2023-02-13T13:29:47.824Z,79.91
2023-02-13T13:32:23.168Z,79.67
2023-02-13T13:34:54.297Z,79.84
2023-02-13T13:37:32.525Z,80.12
2023-02-13T13:40:12.697Z,80.24
2023-02-13T13:42:47.707Z,80.51
2023-02-13T13:45:34.063Z,80.08
2023-02-13T13:48:19.605Z,80.40
2023-02-13T13:50:51.096Z,80.13
2023-02-13T13:53:23.565Z,80.09
2023-02-13T13:56:09.738Z,79.88
2023-02-13T13:58:44.394Z,79.57
2023-02-13T14:01:29.410Z,79.19
2023-02-13T14:04:02.345Z,79.22
2023-02-13T14:07:07.188Z,79.16
2023-02-13T14:09:43.293Z,79.17
2023-02-13T14:12:41.734Z,79.09
2023-02-13T14:15:47.236Z,78.70
2023-02-13T14:18:25.654Z,78.70
2023-02-13T14:20:58.946Z,78.80
2023-02-13T14:23:40.274Z,79.10
2023-02-13T14:26:29.210Z,79.05
2023-02-13T14:29:05.092Z,78.82
2023-02-13T14:31:39.458Z,78.88
2023-02-13T14:34:26.672Z,78.84
2023-02-13T14:37:09.753Z,78.82
2023-02-13T14:39:46.309Z,78.73
2023-02-13T14:42:29.272Z,79.04
2023-02-13T14:45:02.553Z,78.66
2023-02-13T14:47:35.255Z,78.93
2023-02-13T14:50:09.950Z,78.84
2023-02-13T14:52:43.170Z,78.93
2023-02-13T14:55:18.345Z,78.94
2023-02-13T14:57:52.089Z,79.23
2023-02-13T15:00:28.660Z,79.39
2023-02-13T15:03:02.802Z,79.02
2023-02-13T15:05:37.280Z,78.50
2023-02-13T15:08:16.481Z,78.44
2023-02-13T15:10:49.727Z,78.48
2023-02-13T15:13:23.526Z,78.35
2023-02-13T15:15:59.491Z,78.41
2023-02-13T15:18:32.177Z,78.67
2023-02-13T15:21:05.486Z,78.87
2023-02-13T15:23:37.773Z,78.85
2023-02-13T15:26:10.142Z,79.28
2023-02-13T15:28:40.163Z,79.38
2023-02-13T15:31:25.766Z,79.36
2023-02-13T15:33:58.010Z,78.86
2023-02-13T15:36:39.091Z,79.06
2023-02-13T15:39:10.423Z,79.28
2023-02-13T15:41:43.760Z,79.45
2023-02-13T15:44:21.141Z,79.57
2023-02-13T15:46:53.465Z,78.96
2023-02-13T15:49:26.825Z,79.28
2023-02-13T15:52:10.457Z,79.15
2023-02-13T15:54:51.609Z,79.52
2023-02-13T15:57:24.146Z,79.17
2023-02-13T15:59:56.092Z,79.38
2023-02-13T16:02:31.238Z,79.24
2023-02-13T16:05:04.103Z,79.16
2023-02-13T16:07:50.998Z,79.34
2023-02-13T16:10:28.517Z,79.54
2023-02-13T16:13:00.589Z,79.52
2023-02-13T16:15:33.417Z,79.26
2023-02-13T16:18:03.986Z,79.36
2023-02-13T16:20:38.656Z,79.45
2023-02-13T16:23:21.230Z,79.28
2023-02-13T16:25:51.672Z,79.54
2023-02-13T16:28:25.835Z,79.20
2023-02-13T16:31:01.778Z,79.40
2023-02-13T16:33:33.211Z,79.55
2023-02-13T16:36:19.447Z,79.48
2023-02-13T16:38:53.321Z,79.64
2023-02-13T16:41:34.812Z,79.69
2023-02-13T16:44:06.000Z,79.51
2023-02-13T16:46:38.421Z,79.69
2023-02-13T16:49:26.608Z,79.92
2023-02-13T16:52:03.592Z,79.88
2023-02-13T16:54:39.209Z,80.12
2023-02-13T16:57:23.077Z,80.13
2023-02-13T17:00:22.675Z,80.14
2023-02-13T17:02:54.555Z,80.12
2023-02-13T17:05:26.141Z,79.82
2023-02-13T17:07:58.056Z,79.82
2023-02-13T17:10:34.088Z,80.01
2023-02-13T17:13:05.966Z,79.93
2023-02-13T17:15:36.262Z,79.83
2023-02-13T17:18:06.547Z,80.20
2023-02-13T17:20:38.331Z,80.53
2023-02-13T17:23:12.708Z,80.53
2023-02-13T17:25:48.264Z,80.64
2023-02-13T17:28:21.237Z,80.44
2023-02-13T17:30:52.946Z,80.74
2023-02-13T17:33:25.645Z,80.63
2023-02-13T17:35:59.244Z,80.85
2023-02-13T17:38:29.401Z,80.73
2023-02-13T17:41:02.890Z,80.91
2023-02-13T17:43:33.860Z,81.14
2023-02-13T17:46:04.577Z,81.08
2023-02-13T17:48:34.826Z,81.27
2023-02-13T17:51:04.882Z,81.48
2023-02-13T17:53:35.034Z,81.50
2023-02-13T17:56:07.892Z,81.79
2023-02-13T17:58:37.756Z,81.67
2023-02-13T18:01:08.001Z,82.05
2023-02-13T18:03:39.380Z,82.10
2023-02-13T18:06:15.952Z,82.25
2023-02-13T18:08:45.961Z,82.18
2023-02-13T18:11:18.456Z,82.33
2023-02-13T18:13:48.803Z,82.51
2023-02-13T18:16:19.452Z,82.38
2023-02-13T18:18:49.307Z,82.26
2023-02-13T18:21:19.281Z,82.21
2023-02-13T18:23:49.290Z,82.38
2023-02-13T18:26:22.114Z,82.32
2023-02-13T18:28:54.070Z,82.32
2023-02-13T18:31:24.116Z,82.36
2023-02-13T18:33:54.225Z,82.32
2023-02-13T18:36:24.232Z,82.40
2023-02-13T18:38:54.693Z,82.60
2023-02-13T18:41:27.240Z,82.58
2023-02-13T18:43:59.464Z,82.59
2023-02-13T18:46:29.496Z,82.60
2023-02-13T18:48:59.592Z,82.55
2023-02-13T18:51:29.780Z,82.39
2023-02-13T18:54:00.379Z,82.33
2023-02-13T18:56:32.967Z,82.38
2023-02-13T18:59:02.841Z,82.38
2023-02-13T19:01:32.813Z,82.47
2023-02-13T19:04:04.318Z,82.39
2023-02-13T19:06:35.628Z,82.63
2023-02-13T19:09:05.636Z,82.40
2023-02-13T19:11:39.018Z,82.50
2023-02-13T19:14:15.267Z,82.61
2023-02-13T19:16:45.914Z,82.33
2023-02-13T19:19:16.272Z,82.62
2023-02-13T19:21:46.159Z,82.62
2023-02-13T19:24:18.633Z,82.72
2023-02-13T19:26:51.115Z,82.59
2023-02-13T19:29:21.958Z,82.44
2023-02-13T19:31:52.025Z,82.63
2023-02-13T19:34:21.943Z,82.58
2023-02-13T19:36:51.900Z,82.74
2023-02-13T19:39:21.853Z,82.82
2023-02-13T19:41:54.460Z,82.61
2023-02-13T19:44:24.434Z,82.70
2023-02-13T19:46:54.552Z,82.84
2023-02-13T19:49:24.999Z,82.76
2023-02-13T19:51:54.918Z,82.87
2023-02-13T19:54:25.048Z,82.86
2023-02-13T19:57:00.475Z,82.81
2023-02-13T19:59:32.610Z,82.84
2023-02-13T20:02:02.587Z,82.84
2023-02-13T20:04:32.523Z,82.94
2023-02-13T20:07:02.406Z,83.06
2023-02-13T20:09:32.378Z,82.87
2023-02-13T20:12:04.979Z,82.81
2023-02-13T20:14:35.096Z,83.02
2023-02-13T20:17:05.004Z,82.93
2023-02-13T20:19:35.848Z,82.87
2023-02-13T20:22:05.856Z,82.64
2023-02-13T20:24:35.932Z,82.66
2023-02-13T20:27:10.472Z,82.59
2023-02-13T20:29:40.963Z,82.73
2023-02-13T20:32:11.458Z,82.78
2023-02-13T20:34:58.412Z,82.56
2023-02-13T20:37:29.582Z,82.65
2023-02-13T20:39:59.415Z,82.81
2023-02-13T20:42:34.708Z,82.91
2023-02-13T20:45:04.862Z,82.89
2023-02-13T20:47:34.838Z,82.87
2023-02-13T20:50:04.762Z,83.09
2023-02-13T20:52:34.675Z,83.08
2023-02-13T20:55:04.682Z,82.96
2023-02-13T20:57:39.123Z,82.98
2023-02-13T21:00:13.757Z,83.12
2023-02-13T21:02:43.774Z,83.26
2023-02-13T21:05:13.727Z,83.19
2023-02-13T21:07:43.852Z,83.09
2023-02-13T21:10:14.295Z,82.99
2023-02-13T21:12:46.847Z,83.03
2023-02-13T21:15:16.913Z,83.15
2023-02-13T21:17:46.806Z,83.17
2023-02-13T21:20:16.710Z,83.04
2023-02-13T21:22:47.216Z,82.92
2023-02-13T21:25:18.793Z,83.18
2023-02-13T21:27:51.397Z,82.96
2023-02-13T21:30:21.404Z,83.17
2023-02-13T21:32:51.298Z,83.26
2023-02-13T21:35:21.697Z,83.29
2023-02-13T21:37:51.725Z,83.23
2023-02-13T21:40:22.173Z,83.18
2023-02-13T21:42:57.457Z,83.26
2023-02-13T21:45:27.407Z,83.44
2023-02-13T21:47:58.375Z,83.53
2023-02-13T21:50:28.315Z,83.52
2023-02-13T21:52:58.436Z,83.59
2023-02-13T21:55:29.355Z,83.58
2023-02-13T21:58:01.855Z,83.64
2023-02-13T22:00:32.141Z,83.59
2023-02-13T22:03:02.190Z,83.63
2023-02-13T22:05:32.625Z,83.95
2023-02-13T22:08:14.442Z,83.91
2023-02-13T22:10:44.813Z,83.73
2023-02-13T22:13:17.276Z,84.11
2023-02-13T22:15:47.199Z,83.86
2023-02-13T22:18:17.075Z,84.07
2023-02-13T22:20:47.006Z,84.07
2023-02-13T22:23:17.013Z,84.01
2023-02-13T22:25:50.350Z,83.83
2023-02-13T22:28:22.937Z,83.92
2023-02-13T22:30:53.137Z,83.94
2023-02-13T22:33:23.283Z,83.84
2023-02-13T22:35:53.312Z,83.98
2023-02-13T22:38:23.604Z,84.20
2023-02-13T22:40:53.477Z,84.12
2023-02-13T22:43:25.986Z,84.22
2023-02-13T22:45:55.944Z,84.05
2023-02-13T22:48:25.875Z,84.18
2023-02-13T22:50:55.880Z,84.25
2023-02-13T22:53:26.034Z,84.14
2023-02-13T22:55:55.924Z,84.44
2023-02-13T22:58:29.652Z,84.17
2023-02-13T23:01:00.099Z,84.18
2023-02-13T23:03:34.016Z,84.25
2023-02-13T23:06:06.191Z,84.21
2023-02-13T23:08:36.268Z,84.38
2023-02-13T23:11:23.745Z,84.53
2023-02-13T23:13:56.492Z,84.40
2023-02-13T23:16:26.524Z,84.56
2023-02-13T23:18:55.133Z,84.35
2023-02-13T23:21:25.910Z,84.60
2023-02-13T23:23:55.911Z,84.50
2023-02-13T23:26:26.279Z,84.50
2023-02-13T23:29:01.926Z,84.36
2023-02-13T23:31:32.056Z,84.30
2023-02-13T23:34:02.254Z,84.37
2023-02-13T23:36:32.420Z,84.27
2023-02-13T23:39:02.359Z,84.53
2023-02-13T23:41:32.355Z,84.57
2023-02-13T23:44:04.974Z,84.26
2023-02-13T23:46:34.969Z,84.43
2023-02-13T23:49:07.201Z,84.62
2023-02-13T23:51:37.480Z,84.61
2023-02-13T23:54:07.412Z,84.74
2023-02-13T23:56:37.499Z,84.78
2023-02-13T23:59:10.159Z,84.71
